Time;durP1;ratioP1;P1;durP2;ratioP2;P2;SDS_P1;SDS_P2;PMS_P1;PMS_P2;Temp;Humidity;BMP_temperature;BMP_pressure;BME280_temperature;BME280_humidity;BME280_pressure;Samples;Min_cycle;Max_cycle;Signal;HPM_P1;HPM_P2
2021/09/26 00:01:03;;;;;;;16.05;7.45;;;13.90;99.90;;;12.65;100.00;101450.28;5002800;28;20022;-76
2021/09/26 00:03:30;;;;;;;12.95;8.15;;;14.00;99.90;;;12.76;100.00;101463.03;4967668;28;20214;-75
2021/09/26 00:05:56;;;;;;;15.02;7.60;;;14.10;99.90;;;12.82;100.00;101470.69;5005975;28;20036;-76
2021/09/26 00:08:22;;;;;;;11.05;6.75;;;14.10;99.90;;;12.82;100.00;101456.63;4991646;28;20037;-76
2021/09/26 00:10:48;;;;;;;16.23;6.88;;;14.10;99.90;;;12.81;100.00;101453.13;5011449;28;20061;-76
2021/09/26 00:13:17;;;;;;;11.10;6.10;;;14.10;99.90;;;12.79;100.00;101449.69;5003082;28;20033;-76
2021/09/26 00:15:43;;;;;;;14.05;6.22;;;14.20;99.90;;;12.79;100.00;101452.34;5006428;28;20470;-76
2021/09/26 00:18:09;;;;;;;13.55;6.15;;;14.20;99.90;;;12.82;100.00;101438.97;4998894;28;20426;-76
2021/09/26 00:20:35;;;;;;;19.13;6.95;;;14.20;99.90;;;12.94;100.00;101456.09;4996178;28;20056;-76
2021/09/26 00:23:01;;;;;;;14.82;6.80;;;14.20;99.90;;;12.95;100.00;101446.38;4992642;28;20493;-76
2021/09/26 00:25:27;;;;;;;13.75;6.05;;;14.20;99.90;;;12.94;100.00;101427.00;5001824;28;20063;-76
2021/09/26 00:27:54;;;;;;;9.65;5.60;;;14.30;99.90;;;12.91;100.00;101416.56;5003232;28;20568;-76
2021/09/26 00:30:22;;;;;;;11.55;5.47;;;14.20;99.90;;;12.88;100.00;101419.34;5000057;28;20473;-76
2021/09/26 00:32:48;;;;;;;14.85;5.97;;;14.20;99.90;;;12.85;100.00;101411.53;4978579;28;20038;-76
2021/09/26 00:35:17;;;;;;;16.67;6.03;;;14.20;99.90;;;12.84;100.00;101410.69;4995364;28;20034;-76
2021/09/26 00:37:43;;;;;;;11.40;6.07;;;14.20;99.90;;;12.83;100.00;101406.34;4994553;28;20054;-76
2021/09/26 00:40:10;;;;;;;15.25;6.50;;;14.20;99.90;;;12.85;100.00;101416.81;5004543;28;20528;-76
2021/09/26 00:42:36;;;;;;;11.27;5.45;;;14.20;99.90;;;12.80;100.00;101424.97;5003901;28;20029;-76
2021/09/26 00:45:03;;;;;;;11.20;5.45;;;14.10;99.90;;;12.78;100.00;101425.97;5000502;28;20038;-76
2021/09/26 00:47:29;;;;;;;10.80;5.30;;;14.10;99.90;;;12.76;100.00;101436.59;4994856;28;20026;-76
2021/09/26 00:49:56;;;;;;;16.40;5.70;;;14.10;99.90;;;12.75;100.00;101442.81;5000734;28;20034;-76
2021/09/26 00:52:22;;;;;;;12.13;6.03;;;14.10;99.90;;;12.77;100.00;101450.69;5006369;28;20057;-76
2021/09/26 00:54:49;;;;;;;13.32;6.40;;;14.10;99.90;;;12.75;100.00;101447.25;5017543;28;20505;-76
2021/09/26 00:57:17;;;;;;;12.55;6.32;;;14.10;99.90;;;12.76;100.00;101448.97;4979756;28;20067;-76
2021/09/26 00:59:43;;;;;;;11.60;5.32;;;14.10;99.90;;;12.76;100.00;101455.09;5003156;28;20120;-76
2021/09/26 01:02:09;;;;;;;13.88;6.13;;;14.10;99.90;;;12.76;100.00;101451.59;4980730;28;20025;-76
2021/09/26 01:04:35;;;;;;;10.65;5.60;;;14.10;99.90;;;12.74;100.00;101456.94;5007525;28;20398;-76
2021/09/26 01:07:28;;;;;;;13.77;5.97;;;14.10;99.90;;;12.74;100.00;101459.59;5005279;28;20036;-76
2021/09/26 01:10:51;;;;;;;12.70;6.13;;;14.10;99.90;;;12.74;100.00;101441.09;4995480;28;20041;-76
2021/09/26 01:14:11;;;;;;;11.57;5.43;;;14.10;99.90;;;12.70;100.00;101444.81;4996277;28;20123;-76
2021/09/26 01:17:06;;;;;;;8.63;5.30;;;14.10;99.90;;;12.70;100.00;101445.69;4961140;28;20032;-76
2021/09/26 01:19:53;;;;;;;13.07;6.13;;;14.00;99.90;;;12.71;100.00;101446.53;4991127;28;20033;-76
2021/09/26 01:22:40;;;;;;;12.27;5.95;;;14.10;99.90;;;12.74;100.00;101446.38;5016645;28;20029;-76
2021/09/26 01:25:52;;;;;;;13.82;6.22;;;14.10;99.90;;;12.75;100.00;101440.19;4977699;28;20030;-76
2021/09/26 01:29:08;;;;;;;15.25;6.00;;;14.10;99.90;;;12.73;100.00;101434.09;4997249;28;20406;-76
2021/09/26 01:31:45;;;;;;;12.35;6.00;;;14.00;99.90;;;12.71;100.00;101436.81;4958988;28;20038;-76
2021/09/26 01:34:21;;;;;;;10.82;6.00;;;14.00;99.90;;;12.70;100.00;101429.81;5010702;28;20090;-76
2021/09/26 01:37:02;;;;;;;12.75;6.47;;;14.00;99.90;;;12.71;100.00;101441.25;5001410;28;20033;-76
2021/09/26 01:39:50;;;;;;;11.40;6.35;;;14.00;99.90;;;12.71;100.00;101443.88;4976857;28;21150;-76
2021/09/26 01:42:25;;;;;;;12.23;6.50;;;14.10;99.90;;;12.73;100.00;101452.59;4993129;28;20462;-76
2021/09/26 01:45:22;;;;;;;13.30;5.90;;;14.10;99.90;;;12.76;100.00;101444.53;5032405;28;20115;-76
2021/09/26 01:48:07;;;;;;;15.23;6.80;;;14.10;99.90;;;12.77;100.00;101453.34;4980504;28;20040;-76
2021/09/26 01:50:35;;;;;;;13.82;6.85;;;14.10;99.90;;;12.76;100.00;101460.38;4982943;28;20030;-76
2021/09/26 01:53:03;;;;;;;17.90;7.30;;;14.10;99.90;;;12.77;100.00;101456.84;4992142;28;20083;-76
2021/09/26 01:55:30;;;;;;;19.77;7.90;;;14.10;99.90;;;12.77;100.00;101455.97;5003166;28;20092;-76
2021/09/26 01:57:58;;;;;;;14.93;7.43;;;14.10;99.90;;;12.78;100.00;101447.97;4989629;28;20042;-76
2021/09/26 02:00:25;;;;;;;13.20;6.57;;;14.10;99.90;;;12.77;100.00;101440.97;5000579;28;20037;-76
2021/09/26 02:02:51;;;;;;;14.02;7.10;;;14.10;99.90;;;12.79;100.00;101436.47;4999055;28;20026;-76
2021/09/26 02:05:18;;;;;;;12.57;6.82;;;14.20;99.90;;;12.83;100.00;101434.53;4995917;28;20441;-76
2021/09/26 02:07:49;;;;;;;11.70;7.32;;;14.20;99.90;;;12.85;100.00;101430.94;5007413;28;20049;-76
2021/09/26 02:10:20;;;;;;;15.38;7.00;;;14.20;99.90;;;12.84;100.00;101426.56;5015100;28;20037;-76
2021/09/26 02:12:47;;;;;;;12.52;7.22;;;14.20;99.90;;;12.84;100.00;101412.50;5003055;28;20061;-76
2021/09/26 02:15:22;;;;;;;14.85;6.88;;;14.10;99.90;;;12.81;100.00;101404.72;5000707;28;20268;-76
2021/09/26 02:17:49;;;;;;;14.38;6.60;;;14.10;99.90;;;12.78;100.00;101389.81;4991895;28;20044;-76
2021/09/26 02:20:18;;;;;;;11.00;6.38;;;14.10;99.90;;;12.81;100.00;101399.44;4994148;28;20167;-76
2021/09/26 02:22:49;;;;;;;12.15;7.68;;;14.10;99.90;;;12.80;100.00;101402.97;4991539;28;20033;-76
2021/09/26 02:25:19;;;;;;;10.98;6.93;;;14.10;99.90;;;12.79;100.00;101398.63;5023495;28;20054;-77
2021/09/26 02:27:46;;;;;;;14.18;7.00;;;14.10;99.90;;;12.78;100.00;101400.41;5009236;28;20048;-77
2021/09/26 02:30:14;;;;;;;13.02;7.35;;;14.10;99.90;;;12.80;100.00;101405.63;4983947;28;20028;-77
2021/09/26 02:32:42;;;;;;;16.20;7.05;;;14.10;99.90;;;12.80;100.00;101406.47;5009490;28;20060;-77
2021/09/26 02:35:10;;;;;;;19.27;7.82;;;14.20;99.90;;;12.81;100.00;101410.84;4989552;28;20557;-77
2021/09/26 02:37:36;;;;;;;15.35;7.93;;;14.10;99.90;;;12.84;100.00;101410.69;5000529;28;20033;-77
2021/09/26 02:40:06;;;;;;;11.48;7.10;;;14.20;99.90;;;12.86;100.00;101402.72;5001805;28;20022;-77
2021/09/26 02:42:43;;;;;;;12.98;7.45;;;14.20;99.90;;;12.89;100.00;101403.44;4966145;28;20405;-77
2021/09/26 02:45:33;;;;;;;18.67;8.20;;;14.20;99.90;;;13.00;100.00;101402.94;4997364;28;20013;-77
2021/09/26 02:48:24;;;;;;;17.33;7.85;;;14.30;99.90;;;13.06;100.00;101391.22;5007368;28;20428;-77
2021/09/26 02:50:51;;;;;;;13.27;7.20;;;14.40;99.90;;;13.05;100.00;101369.22;4976494;28;20572;-77
2021/09/26 02:53:19;;;;;;;19.77;7.78;;;14.40;99.90;;;13.06;100.00;101356.84;4996872;28;20094;-77
2021/09/26 02:55:48;;;;;;;14.30;7.50;;;14.40;99.90;;;13.07;100.00;101354.13;4979376;28;20409;-77
2021/09/26 02:58:15;;;;;;;18.05;7.15;;;14.40;99.90;;;13.10;100.00;101350.47;4999024;28;20037;-77
2021/09/26 03:00:45;;;;;;;15.48;6.65;;;14.40;99.90;;;13.09;100.00;101354.06;4986922;28;20034;-77
2021/09/26 03:03:23;;;;;;;14.52;6.70;;;14.40;99.90;;;13.07;100.00;101346.19;5004611;28;20474;-77
2021/09/26 03:05:51;;;;;;;11.18;6.35;;;14.40;99.90;;;13.07;100.00;101358.56;5010589;28;20029;-77
2021/09/26 03:08:19;;;;;;;14.93;6.45;;;14.40;99.90;;;13.06;100.00;101354.19;5003924;28;20061;-77
2021/09/26 03:10:50;;;;;;;12.35;6.85;;;14.40;99.90;;;13.07;100.00;101353.28;5010201;28;20037;-77
2021/09/26 03:13:17;;;;;;;11.25;6.00;;;14.40;99.90;;;13.06;100.00;101368.25;4985422;28;20109;-77
2021/09/26 03:15:43;;;;;;;17.65;7.07;;;14.40;99.90;;;13.06;100.00;101362.13;5002152;28;20124;-77
2021/09/26 03:18:09;;;;;;;14.18;5.95;;;14.40;99.90;;;13.02;100.00;101360.56;5019251;28;20485;-77
2021/09/26 03:20:36;;;;;;;13.98;7.60;;;14.30;99.90;;;13.02;100.00;101356.13;4980148;28;20040;-77
2021/09/26 03:23:03;;;;;;;13.27;6.40;;;14.30;99.90;;;13.00;100.00;101358.00;5010270;28;20103;-77
2021/09/26 03:25:29;;;;;;;8.65;6.20;;;14.30;99.90;;;13.00;100.00;101357.13;4973184;28;20049;-77
2021/09/26 03:27:55;;;;;;;15.75;6.50;;;14.30;99.90;;;12.96;100.00;101361.72;4993101;28;20534;-77
2021/09/26 03:30:22;;;;;;;17.30;6.30;;;14.30;99.90;;;12.95;100.00;101369.72;5002309;28;20042;-77
2021/09/26 03:32:48;;;;;;;14.48;6.03;;;14.30;99.90;;;12.97;100.00;101418.06;5009538;28;20473;-77
2021/09/26 03:35:15;;;;;;;14.60;6.35;;;14.30;99.90;;;12.96;100.00;101413.69;4996610;28;20026;-77
2021/09/26 03:37:43;;;;;;;12.70;5.70;;;14.30;99.90;;;12.95;100.00;101410.22;5003196;28;20091;-77
2021/09/26 03:40:11;;;;;;;12.00;5.22;;;14.30;99.90;;;12.95;100.00;101406.72;4995107;28;20109;-77
2021/09/26 03:42:39;;;;;;;12.07;5.28;;;14.20;99.90;;;12.94;100.00;101403.22;4984918;28;20022;-77
2021/09/26 03:45:08;;;;;;;9.38;4.95;;;14.30;99.90;;;12.93;100.00;101399.69;4984127;28;20035;-77
2021/09/26 03:47:35;;;;;;;14.95;5.32;;;14.30;99.90;;;12.93;100.00;101393.56;5012103;28;20478;-77
2021/09/26 03:50:03;;;;;;;10.02;4.95;;;14.30;99.90;;;12.93;100.00;101398.84;5002907;28;20041;-77
2021/09/26 03:52:31;;;;;;;8.82;4.75;;;14.30;99.90;;;12.91;100.00;101390.13;5027766;28;20033;-77
2021/09/26 03:54:58;;;;;;;7.88;4.68;;;14.30;99.90;;;12.91;100.00;101393.66;5006290;28;20040;-77
2021/09/26 03:57:24;;;;;;;16.05;5.30;;;14.20;99.90;;;12.90;100.00;101389.28;4981964;28;20042;-77
2021/09/26 03:59:50;;;;;;;11.23;4.60;;;14.30;99.90;;;12.97;100.00;101375.78;4987610;28;20086;-77
2021/09/26 04:02:16;;;;;;;7.50;4.38;;;14.30;99.90;;;12.99;100.00;101366.00;4989737;28;20030;-77
2021/09/26 04:04:44;;;;;;;9.48;4.20;;;14.30;99.90;;;12.95;100.00;101381.13;5017476;28;20483;-77
2021/09/26 04:07:10;;;;;;;15.77;5.40;;;14.30;99.90;;;12.93;100.00;101373.25;4992947;28;20465;-77
2021/09/26 04:09:36;;;;;;;10.65;4.07;;;14.30;99.90;;;12.92;100.00;101374.19;4997353;28;20085;-77
2021/09/26 04:12:04;;;;;;;12.15;4.47;;;14.30;99.90;;;12.98;100.00;101375.72;4993404;28;20184;-77
2021/09/26 04:14:30;;;;;;;7.78;4.45;;;14.30;99.90;;;13.00;100.00;101383.56;5003965;28;20113;-77
2021/09/26 04:16:56;;;;;;;12.55;4.45;;;14.30;99.90;;;12.99;100.00;101384.50;5002366;28;20075;-77
2021/09/26 04:19:22;;;;;;;12.02;3.90;;;14.30;99.90;;;13.06;100.00;101386.78;4986226;28;20501;-77
2021/09/26 04:21:50;;;;;;;7.03;4.13;;;14.40;99.90;;;12.99;100.00;101387.16;4978368;28;20122;-77
2021/09/26 04:24:18;;;;;;;11.13;4.10;;;14.30;99.90;;;12.98;100.00;101386.28;4991307;28;20084;-77
2021/09/26 04:26:45;;;;;;;12.40;3.92;;;14.30;99.90;;;12.92;100.00;101387.41;4991260;28;20646;-77
2021/09/26 04:29:12;;;;;;;9.10;4.20;;;14.20;99.90;;;12.90;100.00;101375.22;5002744;28;20543;-77
2021/09/26 04:31:39;;;;;;;14.90;4.60;;;14.30;99.90;;;12.89;100.00;101370.84;4984817;28;20034;-77
2021/09/26 04:34:05;;;;;;;9.70;4.15;;;14.20;99.90;;;12.88;100.00;101375.28;4984819;28;20091;-77
2021/09/26 04:36:32;;;;;;;7.63;4.03;;;14.20;99.90;;;12.90;100.00;101357.56;5026366;28;20033;-77
2021/09/26 04:38:58;;;;;;;9.88;4.18;;;14.30;99.90;;;12.89;100.00;101349.69;4993338;28;20063;-77
2021/09/26 04:41:24;;;;;;;12.60;3.92;;;14.20;99.90;;;12.88;100.00;101353.28;5020403;28;20021;-77
2021/09/26 04:43:50;;;;;;;11.00;4.10;;;14.20;99.90;;;12.85;100.00;101349.00;5010313;28;20099;-77
2021/09/26 04:46:16;;;;;;;8.90;4.55;;;14.20;99.90;;;12.82;100.00;101351.75;4998713;28;20057;-77
2021/09/26 04:48:44;;;;;;;17.65;4.22;;;14.20;99.90;;;12.78;100.00;101346.69;4985440;28;20110;-77
2021/09/26 04:51:10;;;;;;;5.85;3.95;;;14.10;99.90;;;12.78;100.00;101367.84;4994448;28;20033;-77
2021/09/26 04:53:36;;;;;;;10.13;3.95;;;14.10;99.90;;;12.75;100.00;101357.41;4998677;28;20489;-77
2021/09/26 04:56:03;;;;;;;9.65;3.92;;;14.10;99.90;;;12.76;100.00;101369.69;4977015;28;20026;-77
2021/09/26 04:58:29;;;;;;;8.23;3.90;;;14.10;99.90;;;12.79;100.00;101374.84;4995107;28;20133;-77
2021/09/26 05:00:55;;;;;;;7.88;3.75;;;14.10;99.90;;;12.75;100.00;101363.56;4993194;28;20030;-77
2021/09/26 05:03:21;;;;;;;10.55;3.75;;;14.10;99.90;;;12.72;100.00;101353.09;4984783;28;20459;-77
2021/09/26 05:05:47;;;;;;;10.02;3.70;;;14.10;99.90;;;12.74;100.00;101353.88;5002308;28;20040;-77
2021/09/26 05:08:13;;;;;;;9.52;3.83;;;14.00;99.90;;;12.72;100.00;101358.38;4979718;28;20021;-77
2021/09/26 05:10:39;;;;;;;9.98;3.75;;;14.10;99.90;;;12.70;100.00;101360.28;4996234;28;20026;-77
2021/09/26 05:13:05;;;;;;;10.18;4.20;;;14.00;99.90;;;12.71;100.00;101372.53;4994025;28;20030;-77
2021/09/26 05:15:32;;;;;;;10.15;3.75;;;14.10;99.90;;;12.71;100.00;101383.09;4977151;28;20038;-77
2021/09/26 05:17:58;;;;;;;6.00;3.33;;;14.00;99.90;;;12.74;100.00;101372.38;4993588;28;20410;-77
2021/09/26 05:20:24;;;;;;;9.95;3.80;;;14.10;99.90;;;12.78;100.00;101352.81;5003276;28;20484;-77
2021/09/26 05:22:50;;;;;;;5.95;3.50;;;14.10;99.90;;;12.81;100.00;101344.78;5019921;28;20029;-77
2021/09/26 05:25:17;;;;;;;9.90;3.10;;;14.20;99.90;;;12.91;100.00;101354.00;4982952;28;21617;-77
2021/09/26 05:27:43;;;;;;;8.38;3.75;;;14.20;99.90;;;12.93;100.00;101338.03;5008149;28;20096;-77
2021/09/26 05:30:10;;;;;;;6.75;2.83;;;14.30;99.90;;;12.94;100.00;101342.41;4985035;28;20084;-77
2021/09/26 05:32:37;;;;;;;9.32;2.92;;;14.30;99.90;;;12.98;100.00;101344.00;4985223;28;20144;-77
2021/09/26 05:35:03;;;;;;;7.35;2.92;;;14.40;99.90;;;13.17;100.00;101348.41;4994287;28;20068;-76
2021/09/26 05:37:29;;;;;;;6.60;3.10;;;14.40;99.90;;;13.20;100.00;101354.41;5002448;28;20106;-77
2021/09/26 05:39:55;;;;;;;6.90;3.00;;;14.50;99.90;;;13.28;100.00;101357.59;4998990;28;20022;-77
2021/09/26 05:42:21;;;;;;;7.22;3.00;;;14.60;99.90;;;13.36;100.00;101348.41;5023533;28;20029;-77
2021/09/26 05:44:47;;;;;;;11.68;3.50;;;14.60;99.90;;;13.33;100.00;101354.72;5023618;28;20084;-77
2021/09/26 05:47:14;;;;;;;7.55;2.95;;;14.60;99.90;;;13.37;100.00;101352.75;4992625;28;20028;-77
2021/09/26 05:49:41;;;;;;;9.18;3.33;;;14.60;99.90;;;13.41;100.00;101346.41;4998030;28;20030;-77
2021/09/26 05:52:09;;;;;;;5.50;2.92;;;14.70;99.90;;;13.43;100.00;101348.03;4991425;28;20486;-77
2021/09/26 05:54:39;;;;;;;8.32;3.40;;;14.70;99.90;;;13.43;100.00;101341.88;4991424;28;20048;-77
2021/09/26 05:57:06;;;;;;;8.20;3.13;;;14.70;99.90;;;13.47;100.00;101343.44;4989036;28;20083;-77
2021/09/26 05:59:40;;;;;;;6.45;3.58;;;14.70;99.90;;;13.53;100.00;101344.00;4999202;28;20053;-77
2021/09/26 06:02:10;;;;;;;5.97;3.05;;;14.80;99.90;;;13.56;100.00;101350.94;4990385;28;20022;-77
2021/09/26 06:04:37;;;;;;;10.75;3.53;;;14.80;99.90;;;13.58;100.00;101350.88;4984141;28;20500;-77
2021/09/26 06:07:03;;;;;;;10.70;3.65;;;14.80;99.90;;;13.54;100.00;101358.97;4977311;28;22093;-77
2021/09/26 06:09:30;;;;;;;6.43;3.85;;;14.80;99.90;;;13.58;100.00;101359.66;4988525;28;20052;-77
2021/09/26 06:11:56;;;;;;;9.55;3.53;;;14.80;99.90;;;13.57;100.00;101362.41;5000075;28;20034;-77
2021/09/26 06:14:23;;;;;;;10.65;3.72;;;14.80;99.90;;;13.58;100.00;101366.75;4986338;28;20029;-77
2021/09/26 06:16:49;;;;;;;6.15;3.28;;;14.80;99.90;;;13.54;100.00;101363.38;5005693;28;20038;-77
2021/09/26 06:19:15;;;;;;;10.70;4.10;;;14.80;99.90;;;13.65;100.00;101379.59;4998690;28;20444;-77
2021/09/26 06:21:43;;;;;;;8.65;3.58;;;14.90;99.90;;;13.65;100.00;101376.97;4998945;28;20030;-77
2021/09/26 06:24:14;;;;;;;7.88;4.05;;;14.90;99.90;;;13.68;100.00;101383.88;5008566;28;20022;-77
2021/09/26 06:26:41;;;;;;;7.10;3.53;;;15.00;99.90;;;13.78;100.00;101435.44;4982278;28;20296;-77
2021/09/26 06:29:08;;;;;;;7.82;3.63;;;15.00;99.90;;;13.78;100.00;101371.03;5005857;28;20287;-77
2021/09/26 06:31:34;;;;;;;12.90;4.28;;;15.00;99.90;;;13.78;100.00;101371.94;5010112;28;20041;-77
2021/09/26 06:34:00;;;;;;;9.52;4.50;;;15.10;99.90;;;13.78;100.00;101371.03;4997411;28;20030;-77
2021/09/26 06:36:26;;;;;;;10.15;5.18;;;15.10;99.90;;;13.84;100.00;101390.13;4965454;28;20018;-77
2021/09/26 06:38:53;;;;;;;7.10;4.40;;;13.80;99.90;;;13.85;100.00;101396.28;5003276;28;20145;-77
2021/09/26 06:41:19;;;;;;;11.40;5.18;;;15.10;99.90;;;13.95;100.00;101395.75;4991531;28;20014;-77
2021/09/26 06:43:46;;;;;;;9.18;4.72;;;15.20;99.90;;;13.96;100.00;101393.97;4992230;28;20022;-77
2021/09/26 06:46:12;;;;;;;7.25;4.65;;;15.30;99.90;;;14.02;100.00;101398.97;5025189;28;20053;-77
2021/09/26 06:48:38;;;;;;;10.23;5.63;;;15.30;99.90;;;14.10;100.00;101402.09;5022422;28;20401;-77
2021/09/26 06:51:04;;;;;;;12.43;6.13;;;15.40;99.90;;;14.14;100.00;101414.19;4967086;28;20026;-77
2021/09/26 06:53:30;;;;;;;13.60;6.30;;;15.50;99.90;;;14.31;100.00;101409.84;4988990;28;20180;-77
2021/09/26 06:55:56;;;;;;;13.50;6.45;;;15.50;99.90;;;14.30;100.00;101411.66;4985327;28;20042;-77
2021/09/26 06:58:24;;;;;;;15.63;6.95;;;15.60;99.90;;;14.31;100.00;101397.47;5006202;28;20182;-77
2021/09/26 07:00:51;;;;;;;12.70;7.30;;;15.60;99.90;;;14.29;100.00;101401.13;4992587;28;20445;-77
2021/09/26 07:03:17;;;;;;;16.98;7.18;;;15.70;99.90;;;14.40;100.00;101424.41;4985254;28;20057;-77
2021/09/26 07:05:44;;;;;;;13.25;7.93;;;15.70;99.90;;;14.52;100.00;101416.69;5017375;28;20052;-77
2021/09/26 07:08:10;;;;;;;16.65;8.02;;;15.70;99.90;;;14.49;100.00;101411.56;4989391;28;20036;-77
2021/09/26 07:10:36;;;;;;;15.98;8.27;;;15.80;99.90;;;14.55;100.00;101403.28;4964482;28;20489;-77
2021/09/26 07:13:03;;;;;;;19.40;9.23;;;15.80;99.90;;;14.66;100.00;101408.03;4988145;28;20144;-77
2021/09/26 07:15:29;;;;;;;18.65;8.70;;;15.80;99.90;;;14.64;100.00;101403.75;4993173;28;20053;-77
2021/09/26 07:17:57;;;;;;;16.63;8.38;;;15.90;99.90;;;14.75;100.00;101412.00;5001032;28;20132;-77
2021/09/26 07:20:27;;;;;;;18.52;9.48;;;15.90;99.90;;;14.66;100.00;101402.72;4981456;28;20482;-77
2021/09/26 07:22:59;;;;;;;19.83;10.77;;;15.80;99.90;;;14.56;100.00;101402.38;4975430;28;20046;-77
2021/09/26 07:25:26;;;;;;;16.58;9.15;;;15.80;99.90;;;14.70;100.00;101416.69;4996294;28;20033;-77
2021/09/26 07:27:52;;;;;;;21.38;9.60;;;15.90;99.90;;;14.76;100.00;101419.88;4992528;28;20021;-77
2021/09/26 07:30:18;;;;;;;16.10;9.35;;;16.00;99.90;;;14.87;100.00;101406.03;4993056;28;20370;-77
2021/09/26 07:32:45;;;;;;;20.90;10.00;;;16.00;99.90;;;14.81;100.00;101395.75;4976314;28;20022;-77
2021/09/26 07:35:13;;;;;;;23.65;10.35;;;16.00;99.90;;;14.91;100.00;101404.94;5004343;28;20033;-77
2021/09/26 07:37:39;;;;;;;16.25;9.73;;;16.10;99.90;;;14.96;100.00;101410.84;4978585;28;20083;-77
2021/09/26 07:40:07;;;;;;;20.52;10.18;;;16.10;99.90;;;14.95;100.00;101414.44;4976205;28;20498;-77
2021/09/26 07:42:33;;;;;;;16.60;10.05;;;16.10;99.90;;;15.00;100.00;101408.03;4996664;28;20030;-77
2021/09/26 07:45:03;;;;;;;19.70;10.02;;;16.20;99.90;;;15.02;100.00;101409.66;5024149;28;20026;-77
2021/09/26 07:47:33;;;;;;;20.88;10.20;;;16.20;99.90;;;15.01;100.00;101385.88;4991913;28;20425;-77
2021/09/26 07:50:02;;;;;;;21.02;10.43;;;16.20;99.90;;;15.04;100.00;101397.19;4984648;28;20025;-77
2021/09/26 07:52:29;;;;;;;15.18;9.52;;;15.10;99.90;;;15.03;100.00;101394.59;4995451;28;20524;-77
2021/09/26 07:54:56;;;;;;;19.83;11.05;;;16.20;99.90;;;15.02;100.00;101395.56;4994877;28;20042;-77
2021/09/26 07:57:25;;;;;;;25.73;10.90;;;16.20;99.90;;;15.06;100.00;101402.41;5008754;28;20038;-77
2021/09/26 07:59:52;;;;;;;22.65;10.23;;;16.20;99.90;;;15.07;100.00;101393.50;4979112;28;20129;-77
2021/09/26 08:02:18;;;;;;;19.08;10.07;;;16.20;99.90;;;15.17;100.00;101407.97;4970733;28;20029;-77
2021/09/26 08:04:45;;;;;;;22.00;11.77;;;16.40;99.90;;;15.20;100.00;101386.56;4998726;28;20042;-78
2021/09/26 08:07:11;;;;;;;18.25;10.30;;;16.30;99.90;;;15.19;100.00;101403.44;4992857;28;20039;-77
2021/09/26 08:09:39;;;;;;;20.50;10.75;;;16.40;99.90;;;15.25;100.00;101405.75;5014930;28;20317;-77
2021/09/26 08:12:07;;;;;;;14.38;8.50;;;16.50;99.90;;;15.51;100.00;101419.38;5004261;28;20095;-77
2021/09/26 08:14:33;;;;;;;19.27;9.80;;;16.60;99.90;;;15.56;100.00;101396.06;4985396;28;20045;-77
2021/09/26 08:17:00;;;;;;;16.83;9.75;;;16.60;99.90;;;15.56;100.00;101398.72;5017195;28;20192;-77
2021/09/26 08:19:27;;;;;;;18.70;9.32;;;16.70;99.90;;;15.69;100.00;101404.19;4989537;28;20047;-77
2021/09/26 08:21:53;;;;;;;16.42;9.00;;;16.80;99.90;;;15.74;100.00;101411.00;4997530;28;20867;-77
2021/09/26 08:24:20;;;;;;;19.52;9.88;;;16.80;99.90;;;15.70;100.00;101403.22;5002087;28;20040;-77
2021/09/26 08:26:46;;;;;;;14.23;8.85;;;16.90;99.90;;;15.90;100.00;101410.09;4993908;28;20030;-77
2021/09/26 08:29:12;;;;;;;17.85;9.35;;;17.00;99.90;;;15.89;100.00;101405.72;4998109;28;20022;-77
2021/09/26 08:31:39;;;;;;;17.35;9.52;;;16.90;99.90;;;15.81;100.00;101400.88;5002277;28;20026;-77
2021/09/26 08:34:05;;;;;;;16.65;9.15;;;16.80;99.90;;;15.82;100.00;101420.31;5019485;28;20021;-77
2021/09/26 08:36:32;;;;;;;17.25;9.10;;;16.90;99.90;;;15.88;100.00;101415.50;5002831;28;20030;-77
2021/09/26 08:38:58;;;;;;;14.05;8.77;;;17.00;99.90;;;15.93;100.00;101401.94;5001139;28;20038;-77
2021/09/26 08:41:25;;;;;;;15.23;9.40;;;17.10;99.90;;;16.04;100.00;101407.47;5001746;28;20034;-77
2021/09/26 08:43:52;;;;;;;14.35;8.90;;;17.20;99.90;;;16.15;100.00;101409.50;4984345;28;20056;-77
2021/09/26 08:46:20;;;;;;;19.38;9.77;;;17.30;99.90;;;16.25;100.00;101413.34;4999661;28;20388;-77
2021/09/26 08:48:47;;;;;;;14.60;8.93;;;17.40;99.90;;;16.36;100.00;101418.84;4990958;28;20026;-77
2021/09/26 08:51:13;;;;;;;16.25;8.50;;;17.50;99.90;;;16.47;100.00;101601.63;4987580;28;20087;-77
2021/09/26 08:53:40;;;;;;;15.93;8.27;;;17.60;99.90;;;16.58;100.00;101771.16;4998254;28;20060;-77
2021/09/26 08:56:06;;;;;;;12.80;8.52;;;17.60;99.90;;;16.58;100.00;101771.16;4974411;28;20049;-77
2021/09/26 08:58:32;;;;;;;12.23;7.97;;;17.80;99.90;;;16.79;100.00;101748.69;4968378;28;20041;-77
2021/09/26 09:01:06;;;;;;;17.23;8.75;;;17.90;99.90;;;16.83;100.00;101695.38;4979094;28;20034;-77
2021/09/26 09:03:35;;;;;;;18.55;9.00;;;17.90;99.90;;;16.88;100.00;101675.53;4962990;28;20049;-77
2021/09/26 09:06:39;;;;;;;15.00;8.77;;;18.00;99.90;;;17.04;100.00;101672.84;4959665;28;20050;-77
2021/09/26 09:09:34;;;;;;;18.10;9.30;;;18.20;99.90;;;17.14;99.88;101674.00;4946084;28;20502;-77
2021/09/26 09:12:57;;;;;;;15.35;8.70;;;18.40;99.90;;;17.23;99.95;101667.25;4965341;28;20049;-77
2021/09/26 09:16:06;;;;;;;15.65;8.85;;;18.30;99.90;;;17.19;100.00;101665.72;4960479;28;20040;-77
2021/09/26 09:19:39;;;;;;;19.83;9.52;;;18.40;99.90;;;17.29;100.00;101672.22;4968372;28;20045;-77
2021/09/26 09:22:53;;;;;;;14.07;9.13;;;18.60;99.90;;;17.66;100.00;101670.00;4990281;28;20037;-77
2021/09/26 09:26:42;;;;;;;14.85;9.43;;;18.90;99.90;;;17.82;98.39;101661.97;4957575;28;20049;-77
2021/09/26 09:30:00;;;;;;;17.38;10.02;;;19.10;99.90;;;17.91;96.90;101660.53;4989266;28;20524;-77
2021/09/26 09:33:11;;;;;;;18.08;10.18;;;19.20;99.90;;;18.45;95.80;101692.63;4958129;28;20057;-77
2021/09/26 09:35:59;;;;;;;17.80;10.60;;;19.60;99.90;;;18.80;92.22;101670.81;4983616;28;20120;-78
2021/09/26 09:39:02;;;;;;;20.50;11.48;;;19.50;99.90;;;18.30;93.35;101649.13;4955578;28;20087;-78
2021/09/26 09:42:20;;;;;;;19.30;10.10;;;19.50;99.90;;;18.69;92.59;101659.97;4979806;28;20036;-78
2021/09/26 09:45:19;;;;;;;17.00;11.07;;;19.70;99.90;;;18.79;91.88;101661.06;4995230;28;20053;-77
2021/09/26 09:49:00;;;;;;;16.38;10.82;;;19.60;99.90;;;18.56;92.98;101660.75;4958060;28;20037;-77
2021/09/26 09:53:07;;;;;;;19.67;10.20;;;19.70;99.90;;;18.80;90.82;101639.63;4952340;28;20051;-77
2021/09/26 09:56:37;;;;;;;16.00;10.13;;;19.90;99.90;;;19.19;90.55;101661.94;4960859;28;20441;-77
2021/09/26 09:59:43;;;;;;;16.23;9.93;;;20.30;99.90;;;19.59;87.17;101664.53;4967367;28;21975;-77
2021/09/26 10:03:09;;;;;;;14.77;9.65;;;20.50;99.90;;;19.52;85.85;101625.00;4960165;28;20038;-77
2021/09/26 10:06:37;;;;;;;17.20;8.45;;;20.70;99.90;;;19.79;86.28;101640.94;4964254;28;20038;-78
2021/09/26 10:09:30;;;;;;;21.50;10.27;;;21.10;99.90;;;20.51;84.29;101669.63;4965942;28;20208;-78
2021/09/26 10:12:33;;;;;;;18.00;8.95;;;21.40;99.90;;;20.67;83.03;101668.41;4968163;28;20094;-78
2021/09/26 10:15:24;;;;;;;13.32;8.45;;;21.40;99.90;;;20.64;83.40;101659.75;4981615;28;20143;-77
2021/09/26 10:18:13;;;;;;;18.25;8.85;;;21.40;99.90;;;20.43;81.46;101630.91;4973787;28;20045;-77
2021/09/26 10:21:01;;;;;;;13.57;9.05;;;21.20;99.90;;;20.22;82.82;101617.28;4968811;28;20041;-77
2021/09/26 10:23:53;;;;;;;14.85;9.65;;;21.10;99.90;;;20.23;83.13;101660.94;4971186;28;25767;-77
2021/09/26 10:26:42;;;;;;;14.23;8.48;;;21.30;99.90;;;20.46;83.22;101659.25;4964361;28;20091;-78